Time;durP1;ratioP1;P1;durP2;ratioP2;P2;SDS_P1;SDS_P2;PMS_P1;PMS_P2;Temp;Humidity;BMP_temperature;BMP_pressure;BME280_temperature;BME280_humidity;BME280_pressure;Samples;Min_cycle;Max_cycle;Signal;HPM_P1;HPM_P2
2022/05/19 00:02:00;;;;;;;31.80;15.60;;;;;;;3.58;63.22;100910.43;213641;1274;139849;-63
2022/05/19 00:07:03;;;;;;;39.60;15.30;;;;;;;3.53;63.35;100912.02;214271;1274;141214;-62
2022/05/19 00:12:15;;;;;;;67.20;22.50;;;;;;;3.41;63.51;100909.67;213589;1274;140938;-63
2022/05/19 00:17:18;;;;;;;63.80;23.80;;;;;;;3.28;63.75;100911.52;213174;1276;142618;-62
2022/05/19 00:22:21;;;;;;;116.20;41.30;;;;;;;3.17;64.01;100912.29;213942;1274;143276;-62
2022/05/19 00:27:24;;;;;;;114.30;41.70;;;;;;;3.11;64.41;100914.33;214806;1274;141695;-63
2022/05/19 00:32:28;;;;;;;87.30;35.80;;;;;;;3.06;64.51;100915.86;214515;1274;140262;-61
2022/05/19 00:37:30;;;;;;;95.40;37.70;;;;;;;3.01;64.74;100903.54;214008;1274;140712;-63
2022/05/19 00:42:45;;;;;;;110.80;38.50;;;;;;;2.94;64.88;100896.54;214191;1274;140701;-62
2022/05/19 00:47:58;;;;;;;68.30;26.10;;;;;;;2.92;64.85;100895.73;215073;1274;140819;-65
2022/05/19 00:53:14;;;;;;;64.00;20.80;;;;;;;2.89;65.18;100893.74;214548;1274;140484;-63
2022/05/19 00:58:26;;;;;;;50.50;17.80;;;;;;;2.87;65.02;100895.32;216054;1274;141607;-65
2022/05/19 01:03:38;;;;;;;46.90;18.50;;;;;;;2.85;65.48;100892.37;215917;1274;139877;-66
2022/05/19 01:09:02;;;;;;;77.40;29.90;;;;;;;2.76;65.76;100892.26;213518;1274;139764;-63
2022/05/19 01:14:06;;;;;;;77.20;27.20;;;;;;;2.70;65.69;100895.20;215732;1274;140127;-67
2022/05/19 01:19:20;;;;;;;69.30;27.00;;;;;;;2.64;65.72;100893.14;215204;1274;140376;-64
2022/05/19 01:24:34;;;;;;;61.70;22.90;;;;;;;2.57;66.00;100893.30;214967;1274;140338;-64
2022/05/19 01:29:37;;;;;;;50.80;23.40;;;;;;;2.51;66.12;100893.86;213192;1274;140918;-63
2022/05/19 01:34:39;;;;;;;50.70;21.00;;;;;;;2.50;66.24;100894.95;213726;1274;140803;-63
2022/05/19 01:39:47;;;;;;;55.00;21.60;;;;;;;2.49;66.64;100890.40;214347;1273;140539;-65
2022/05/19 01:45:54;;;;;;;41.30;16.80;;;;;;;2.49;66.54;100887.30;213179;1274;139926;-63
2022/05/19 01:51:00;;;;;;;32.20;14.60;;;;;;;2.51;66.66;100891.31;212678;1274;140929;-63
2022/05/19 01:56:32;;;;;;;32.10;12.60;;;;;;;2.45;66.76;100887.36;213614;1274;140406;-64
2022/05/19 02:01:43;;;;;;;28.40;10.70;;;;;;;2.36;66.81;100891.09;213325;1276;151275;-66
2022/05/19 02:07:08;;;;;;;22.50;11.20;;;;;;;2.23;67.14;100887.59;213007;1276;140750;-61
2022/05/19 02:12:10;;;;;;;25.70;10.10;;;;;;;2.15;67.07;100879.66;213531;1275;140029;-63
2022/05/19 02:17:19;;;;;;;16.00;7.10;;;;;;;2.12;67.43;100880.30;214853;1274;140396;-64
2022/05/19 02:22:25;;;;;;;17.70;9.00;;;;;;;2.06;67.41;100879.11;213928;1274;140496;-63
2022/05/19 02:27:44;;;;;;;16.40;7.90;;;;;;;2.05;67.63;100877.30;214563;1274;140703;-64
2022/05/19 02:32:48;;;;;;;15.50;8.80;;;;;;;2.03;67.46;100879.22;214641;1274;221868;-65
2022/05/19 02:37:54;;;;;;;14.90;7.40;;;;;;;2.11;67.90;100881.13;215539;1276;140884;-64
2022/05/19 02:42:58;;;;;;;28.80;9.20;;;;;;;2.18;67.70;100884.61;215868;1274;140678;-66
2022/05/19 02:48:03;;;;;;;21.10;7.10;;;;;;;2.16;67.93;100886.05;215722;1274;140762;-67
2022/05/19 02:53:07;;;;;;;10.20;5.80;;;;;;;2.10;68.33;100881.08;216126;1274;141147;-67
2022/05/19 02:58:14;;;;;;;13.60;4.80;;;;;;;2.08;68.12;100881.81;215971;1274;141072;-66
2022/05/19 03:03:18;;;;;;;13.10;5.60;;;;;;;2.10;68.26;100881.05;215949;1275;140908;-66
2022/05/19 03:08:22;;;;;;;16.30;7.80;;;;;;;2.14;68.51;100882.20;214226;1274;141281;-63
2022/05/19 03:13:25;;;;;;;8.00;5.40;;;;;;;2.30;68.83;100878.86;213871;1274;142203;-64
2022/05/19 03:18:28;;;;;;;15.60;5.90;;;;;;;2.44;68.62;100876.73;213740;1274;142234;-64
2022/05/19 03:23:31;;;;;;;15.30;5.70;;;;;;;2.55;68.83;100875.22;214912;1274;143069;-65
2022/05/19 03:28:35;;;;;;;8.20;4.70;;;;;;;2.72;68.42;100868.97;214338;1274;141096;-64
2022/05/19 03:33:38;;;;;;;11.50;7.30;;;;;;;3.00;68.41;100856.60;214137;1274;140557;-64
2022/05/19 03:38:41;;;;;;;7.60;4.10;;;;;;;3.41;68.22;100852.06;214281;1274;140540;-63
2022/05/19 03:43:44;;;;;;;11.10;3.90;;;;;;;3.68;67.93;100849.02;213718;1274;140399;-64
2022/05/19 03:48:47;;;;;;;8.70;4.90;;;;;;;3.88;67.80;100851.48;213510;1274;141694;-64
2022/05/19 03:53:51;;;;;;;9.70;3.70;;;;;;;4.42;67.15;100849.00;213501;1274;140915;-64
2022/05/19 03:58:54;;;;;;;16.40;6.40;;;;;;;5.02;66.90;100849.20;213905;1274;140573;-65
2022/05/19 04:03:57;;;;;;;4.60;3.60;;;;;;;5.62;66.55;100846.73;213991;1274;139955;-66
2022/05/19 04:09:01;;;;;;;4.10;3.70;;;;;;;6.26;66.07;100843.05;214130;1276;142094;-64
2022/05/19 04:14:03;;;;;;;5.40;3.60;;;;;;;6.86;65.25;100840.95;213840;1276;140917;-64
2022/05/19 04:19:06;;;;;;;7.70;5.00;;;;;;;7.47;64.63;100835.42;214767;1276;141326;-65
2022/05/19 04:24:11;;;;;;;10.80;7.30;;;;;;;8.17;63.33;100831.80;213384;1275;141876;-64
2022/05/19 04:29:14;;;;;;;6.90;4.50;;;;;;;9.10;62.38;100828.14;215037;1274;140371;-65
2022/05/19 04:34:17;;;;;;;7.30;4.40;;;;;;;9.95;60.86;100824.74;214706;1274;140968;-65
2022/05/19 04:39:20;;;;;;;9.50;5.30;;;;;;;10.38;59.36;100825.75;214825;1274;141269;-65
2022/05/19 04:44:23;;;;;;;16.00;6.00;;;;;;;10.92;57.87;100820.98;214548;1275;140600;-67
2022/05/19 04:49:26;;;;;;;8.30;4.80;;;;;;;11.00;56.90;100822.95;216109;1274;142009;-68
2022/05/19 04:54:30;;;;;;;8.40;5.00;;;;;;;11.18;55.68;100822.52;215900;1277;141146;-67
2022/05/19 04:59:37;;;;;;;9.60;5.20;;;;;;;12.53;54.00;100823.77;213565;1276;162490;-66
2022/05/19 05:04:41;;;;;;;12.30;5.80;;;;;;;12.92;53.11;100823.08;213835;1274;143090;-64
2022/05/19 05:09:44;;;;;;;15.10;6.00;;;;;;;13.37;52.63;100826.92;214568;1274;140774;-64
2022/05/19 05:14:47;;;;;;;9.50;6.40;;;;;;;16.29;48.99;100818.97;214357;1274;141423;-64
2022/05/19 05:19:50;;;;;;;16.10;6.10;;;;;;;20.90;44.27;100814.70;213277;1274;141536;-65
2022/05/19 05:24:54;;;;;;;8.80;5.70;;;;;;;24.31;40.79;100825.29;213296;1274;142332;-65
2022/05/19 05:29:58;;;;;;;7.20;5.60;;;;;;;27.21;37.43;100822.64;214348;1277;141990;-64
2022/05/19 05:35:01;;;;;;;10.70;5.30;;;;;;;29.42;33.80;100824.51;214062;1274;141504;-65
2022/05/19 05:40:07;;;;;;;7.20;4.20;;;;;;;31.13;30.65;100826.38;213858;1276;140542;-65
2022/05/19 05:45:11;;;;;;;7.20;4.80;;;;;;;32.11;28.15;100823.21;214377;1274;139946;-65
2022/05/19 05:50:14;;;;;;;6.60;3.60;;;;;;;33.22;26.53;100822.50;213745;1274;142804;-65
2022/05/19 05:55:16;;;;;;;9.30;3.90;;;;;;;33.28;24.34;100823.36;214577;1274;220484;-65
2022/05/19 06:00:19;;;;;;;6.90;3.60;;;;;;;33.54;23.81;100833.09;213700;1274;140420;-65
2022/05/19 06:05:21;;;;;;;15.80;4.50;;;;;;;32.96;22.86;100840.33;214860;1274;139902;-65
2022/05/19 06:10:23;;;;;;;5.90;3.90;;;;;;;31.38;23.19;100834.70;214377;1274;140022;-64
2022/05/19 06:15:27;;;;;;;5.90;3.80;;;;;;;31.49;23.28;100831.62;214407;1274;142988;-64
2022/05/19 06:20:30;;;;;;;9.00;4.50;;;;;;;31.28;22.45;100828.25;214803;1274;140917;-65
2022/05/19 06:25:34;;;;;;;6.00;3.80;;;;;;;30.22;23.45;100823.82;215222;1274;142062;-65
2022/05/19 06:30:37;;;;;;;5.10;3.80;;;;;;;29.23;23.01;100823.13;214318;1276;140139;-65
2022/05/19 06:35:41;;;;;;;8.00;3.90;;;;;;;27.17;23.85;100826.61;215954;1274;140222;-64
2022/05/19 06:40:44;;;;;;;6.30;4.20;;;;;;;25.77;24.82;100826.52;216132;1274;141045;-64
2022/05/19 06:45:47;;;;;;;6.70;5.00;;;;;;;25.52;25.89;100827.59;215791;1274;142242;-64
2022/05/19 06:50:49;;;;;;;11.50;4.50;;;;;;;25.18;25.88;100829.98;215621;1274;139708;-64
2022/05/19 06:56:14;;;;;;;8.90;4.30;;;;;;;24.91;26.02;100819.94;214604;1274;152582;-63
2022/05/19 07:01:17;;;;;;;7.30;3.70;;;;;;;25.17;25.54;100818.45;213950;1274;142408;-64
2022/05/19 07:06:21;;;;;;;6.30;3.70;;;;;;;26.10;25.60;100816.73;214984;1274;140883;-64
2022/05/19 07:11:26;;;;;;;3.90;3.10;;;;;;;27.72;24.84;100810.92;214443;1274;141290;-64
2022/05/19 07:16:32;;;;;;;6.00;2.50;;;;;;;28.33;23.75;100801.98;214192;1274;234306;-64
2022/05/19 07:21:36;;;;;;;6.50;2.70;;;;;;;28.32;23.83;100800.52;213954;1274;141292;-64
2022/05/19 07:26:39;;;;;;;4.00;2.50;;;;;;;28.04;23.91;100795.64;213332;1276;151440;-64
2022/05/19 07:31:46;;;;;;;7.10;2.30;;;;;;;28.16;23.67;100797.78;213720;1274;140947;-64
2022/05/19 07:36:52;;;;;;;3.40;1.70;;;;;;;28.03;24.24;100790.58;213896;1274;142367;-64
2022/05/19 07:41:57;;;;;;;11.60;2.60;;;;;;;28.06;23.78;100791.17;214169;1274;141175;-65
2022/05/19 07:47:00;;;;;;;4.20;1.90;;;;;;;27.75;23.91;100787.95;211842;1274;2347732;-64
2022/05/19 07:52:04;;;;;;;3.10;1.70;;;;;;;27.76;24.35;100790.02;213937;1274;141115;-64
2022/05/19 07:57:08;;;;;;;12.70;2.20;;;;;;;27.39;24.12;100786.02;214053;1276;140964;-65
2022/05/19 08:02:12;;;;;;;3.80;1.40;;;;;;;27.04;24.65;100775.36;213223;1274;142345;-64
2022/05/19 08:07:15;;;;;;;2.50;1.60;;;;;;;27.10;25.35;100779.58;213380;1274;140879;-65
2022/05/19 08:17:46;;;;;;;2.00;1.80;;;;;;;27.17;25.99;100785.83;215247;1274;140302;-65
2022/05/19 08:22:49;;;;;;;4.50;2.20;;;;;;;27.02;25.16;100785.48;215664;1274;140278;-65
2022/05/19 08:27:56;;;;;;;2.30;1.90;;;;;;;26.45;25.22;100785.21;215815;1274;140394;-65
2022/05/19 08:32:58;;;;;;;6.00;1.50;;;;;;;26.39;25.80;100780.42;215285;1272;140167;-65
2022/05/19 08:38:02;;;;;;;2.90;1.30;;;;;;;26.29;25.77;100776.61;215879;1274;139382;-65
2022/05/19 08:43:09;;;;;;;2.40;1.80;;;;;;;26.54;26.48;100773.59;215918;1274;141721;-66
2022/05/19 08:48:19;;;;;;;3.20;2.10;;;;;;;26.67;26.54;100776.77;215003;1274;140594;-65
2022/05/19 08:53:24;;;;;;;2.90;1.90;;;;;;;26.95;26.86;100769.45;213886;1274;140412;-66
2022/05/19 08:58:36;;;;;;;3.30;2.30;;;;;;;26.79;26.69;100768.21;214713;1274;142393;-66
2022/05/19 09:03:55;;;;;;;2.20;1.60;;;;;;;26.65;27.17;100767.59;213967;1274;140927;-65
2022/05/19 09:09:36;;;;;;;3.80;1.50;;;;;;;26.84;27.42;100756.75;214720;1274;139744;-66
2022/05/19 09:14:40;;;;;;;2.90;2.10;;;;;;;26.61;27.27;100749.52;213734;1274;140535;-68
2022/05/19 09:19:53;;;;;;;3.00;2.00;;;;;;;26.65;27.87;100750.80;214791;1274;140995;-67
2022/05/19 09:24:56;;;;;;;2.50;2.10;;;;;;;26.71;28.01;100754.48;213643;1274;141123;-66
2022/05/19 09:29:59;;;;;;;3.20;1.80;;;;;;;26.84;27.67;100751.38;216160;1274;141461;-65
2022/05/19 09:35:25;;;;;;;9.70;2.10;;;;;;;26.95;27.83;100751.82;215872;1274;140909;-67
2022/05/19 09:40:30;;;;;;;2.50;2.20;;;;;;;26.95;27.12;100737.49;215808;1274;141353;-65
2022/05/19 09:45:53;;;;;;;2.00;1.90;;;;;;;27.07;27.80;100733.08;215853;1274;142070;-67
2022/05/19 09:51:08;;;;;;;4.60;1.50;;;;;;;27.02;28.22;100726.02;215469;1274;141155;-65
2022/05/19 09:56:15;;;;;;;2.10;2.00;;;;;;;27.00;27.12;100717.41;215156;1274;143444;-65
2022/05/19 10:01:28;;;;;;;6.80;2.50;;;;;;;26.86;27.45;100711.44;214247;1274;142006;-65
2022/05/19 10:06:47;;;;;;;4.40;2.00;;;;;;;27.03;27.52;100697.52;213211;1274;142337;-65
2022/05/19 10:12:01;;;;;;;4.60;1.50;;;;;;;27.02;27.03;100690.05;213701;1274;142776;-64
2022/05/19 10:17:09;;;;;;;3.40;2.10;;;;;;;26.58;27.08;100683.16;214047;1274;141624;-66
2022/05/19 10:22:27;;;;;;;1.50;1.40;;;;;;;26.55;27.75;100682.36;214368;1274;142180;-65
2022/05/19 10:33:21;;;;;;;3.50;2.10;;;;;;;26.83;27.08;100669.14;213715;1274;140987;-67
2022/05/19 10:38:52;;;;;;;5.20;1.90;;;;;;;26.80;27.14;100659.70;213300;1273;141477;-67
2022/05/19 10:44:29;;;;;;;3.00;1.80;;;;;;;27.06;27.74;100655.30;214436;1274;140205;-66
2022/05/19 10:49:32;;;;;;;7.90;1.90;;;;;;;27.14;27.44;100646.05;213333;1274;140730;-65
2022/05/19 10:54:54;;;;;;;3.20;1.80;;;;;;;27.27;27.54;100632.17;213913;1274;139983;-65
2022/05/19 11:00:18;;;;;;;4.00;1.80;;;;;;;27.50;27.47;100628.88;214412;1274;139944;-65
2022/05/19 11:05:28;;;;;;;2.50;1.90;;;;;;;27.42;26.65;100623.33;213048;1276;143782;-65
2022/05/19 11:10:44;;;;;;;2.10;1.80;;;;;;;27.27;26.86;100619.07;214794;1276;140547;-66
2022/05/19 11:16:06;;;;;;;1.90;1.60;;;;;;;27.16;26.34;100605.44;215863;1274;140689;-66
2022/05/19 11:21:14;;;;;;;4.40;2.00;;;;;;;27.23;26.47;100608.25;214437;1274;140676;-65
2022/05/19 11:26:48;;;;;;;5.20;1.80;;;;;;;27.38;26.03;100601.50;216003;1274;140964;-65
2022/05/19 11:32:07;;;;;;;2.00;1.80;;;;;;;27.29;25.69;100588.41;215911;1274;140261;-65
2022/05/19 11:37:16;;;;;;;1.70;1.60;;;;;;;27.12;26.01;100571.96;215467;1275;207955;-66
2022/05/19 11:42:55;;;;;;;1.90;1.50;;;;;;;27.33;26.10;100568.62;215528;1274;140193;-67
2022/05/19 11:59:12;;;;;;;3.60;1.90;;;;;;;27.06;26.45;100560.48;215622;1274;160943;-65
2022/05/19 12:04:27;;;;;;;4.00;2.40;;;;;;;27.14;26.30;100555.16;214824;1274;140357;-65
2022/05/19 12:09:43;;;;;;;4.30;1.90;;;;;;;27.27;26.02;100546.79;214078;1274;140281;-65
2022/05/19 12:14:49;;;;;;;2.80;1.80;;;;;;;27.40;26.00;100538.20;214119;1274;140094;-64
2022/05/19 12:19:58;;;;;;;6.70;1.90;;;;;;;27.26;25.65;100532.66;214597;1274;140132;-66
2022/05/19 12:25:01;;;;;;;8.90;1.80;;;;;;;27.11;25.72;100535.81;213800;1274;140972;-65
2022/05/19 12:35:43;;;;;;;1.40;1.30;;;;;;;27.08;25.48;100525.73;213170;1274;141215;-66
2022/05/19 12:40:57;;;;;;;1.90;1.50;;;;;;;27.01;26.08;100510.52;213118;1274;143118;-65
2022/05/19 12:46:02;;;;;;;2.90;1.50;;;;;;;26.85;25.59;100503.36;214032;1274;140615;-68
2022/05/19 12:51:08;;;;;;;1.70;1.60;;;;;;;26.93;25.46;100496.13;213277;1274;140723;-64
2022/05/19 12:56:41;;;;;;;1.50;1.40;;;;;;;26.96;25.42;100492.41;214742;1274;141193;-64
2022/05/19 13:01:47;;;;;;;1.50;1.40;;;;;;;26.99;25.57;100497.99;213290;1274;140490;-65
2022/05/19 13:07:40;;;;;;;2.90;2.10;;;;;;;27.03;25.10;100487.30;213786;1274;139847;-65
2022/05/19 13:13:02;;;;;;;2.50;1.90;;;;;;;27.01;24.83;100483.29;215294;1274;140687;-65
2022/05/19 13:18:08;;;;;;;1.60;1.50;;;;;;;27.05;24.95;100475.87;215688;1274;139868;-64
2022/05/19 13:23:24;;;;;;;4.90;1.70;;;;;;;27.27;25.02;100467.25;215770;1274;140852;-67
2022/05/19 13:33:58;;;;;;;3.20;1.60;;;;;;;27.21;24.12;100464.09;215873;1274;151130;-65
2022/05/19 13:39:17;;;;;;;1.90;1.60;;;;;;;27.02;24.33;100462.13;215481;1273;141621;-66
2022/05/19 13:44:31;;;;;;;2.40;1.90;;;;;;;26.87;24.61;100461.64;214890;1274;141448;-64
2022/05/19 13:49:36;;;;;;;2.30;1.80;;;;;;;26.90;25.03;100454.52;215409;1274;140354;-67
2022/05/19 13:54:42;;;;;;;1.40;1.20;;;;;;;26.95;25.04;100444.56;215204;1274;139927;-67
2022/05/19 13:59:47;;;;;;;2.00;1.60;;;;;;;26.99;24.72;100436.05;215507;1274;140409;-67
2022/05/19 14:04:50;;;;;;;3.70;1.70;;;;;;;27.09;24.36;100429.63;213318;1274;142251;-63
2022/05/19 14:09:56;;;;;;;2.60;1.60;;;;;;;27.11;24.78;100429.08;214166;1274;140705;-65
2022/05/19 14:15:08;;;;;;;4.50;1.90;;;;;;;27.03;24.60;100420.28;215322;1274;139588;-66
2022/05/19 14:20:20;;;;;;;1.60;1.40;;;;;;;26.97;24.93;100409.26;214036;1274;140716;-64
2022/05/19 14:25:28;;;;;;;1.90;1.40;;;;;;;26.86;23.94;100400.95;213330;1274;141587;-67
2022/05/19 14:30:41;;;;;;;4.20;1.60;;;;;;;26.64;24.31;100398.77;213178;1274;141075;-62
2022/05/19 14:35:50;;;;;;;1.90;1.30;;;;;;;26.56;24.29;100394.89;214647;1274;141428;-62
2022/05/19 14:46:43;;;;;;;3.00;1.40;;;;;;;26.43;23.68;100377.35;213782;1275;221632;-63
2022/05/19 14:51:51;;;;;;;1.40;1.30;;;;;;;26.30;23.51;100370.58;213904;1274;140033;-61
2022/05/19 14:57:01;;;;;;;2.80;1.30;;;;;;;26.16;22.81;100371.80;214553;1274;237127;-63
2022/05/19 15:02:05;;;;;;;2.00;1.70;;;;;;;25.98;22.45;100364.85;213456;1274;140369;-62
2022/05/19 15:07:15;;;;;;;6.20;2.10;;;;;;;25.92;22.32;100361.61;213232;1274;139988;-62
2022/05/19 15:12:23;;;;;;;4.40;1.60;;;;;;;25.91;22.52;100359.55;214839;1274;140565;-63
2022/05/19 15:17:26;;;;;;;;;;;;;;;25.89;22.42;100362.25;213913;1274;139773;-65
2022/05/19 15:22:31;;;;;;;2.80;1.20;;;;;;;25.85;22.41;100353.13;216119;1273;126551;-64
2022/05/19 15:27:38;;;;;;;3.60;1.00;;;;;;;25.91;22.11;100342.23;214927;1274;141551;-63
2022/05/19 15:32:42;;;;;;;3.60;1.30;;;;;;;25.95;22.64;100334.77;216044;1274;140794;-63
2022/05/19 15:37:47;;;;;;;1.50;1.40;;;;;;;26.02;22.56;100328.67;216191;1274;141306;-63
2022/05/19 15:42:50;;;;;;;2.40;1.60;;;;;;;25.90;21.83;100316.42;215942;1275;142314;-62
2022/05/19 15:47:55;;;;;;;3.70;1.30;;;;;;;25.70;21.54;100315.77;214316;1274;141538;-63
2022/05/19 15:53:02;;;;;;;1.50;1.00;;;;;;;25.59;21.45;100312.04;214610;1274;141008;-63
2022/05/19 15:58:21;;;;;;;1.60;1.20;;;;;;;25.53;21.82;100305.54;214304;1274;141114;-64
2022/05/19 16:03:29;;;;;;;1.50;1.40;;;;;;;25.45;21.71;100294.86;215140;1274;141124;-64
2022/05/19 16:08:35;;;;;;;13.70;1.70;;;;;;;25.37;22.06;100295.02;213124;1274;141109;-63
2022/05/19 16:13:41;;;;;;;3.00;1.30;;;;;;;25.38;22.29;100300.10;214203;1274;141052;-62
2022/05/19 16:18:45;;;;;;;;;;;;;;;25.35;22.71;100299.46;213619;1274;142690;-64
2022/05/19 16:23:50;;;;;;;1.40;1.30;;;;;;;25.28;22.65;100295.15;214492;1274;128949;-65
2022/05/19 16:28:53;;;;;;;1.50;1.40;;;;;;;25.17;22.75;100290.91;213119;1274;141819;-66
2022/05/19 16:33:57;;;;;;;5.10;1.90;;;;;;;24.97;22.80;100289.77;214249;1274;140598;-64
2022/05/19 16:39:00;;;;;;;1.80;1.70;;;;;;;24.83;23.23;100287.53;213439;1274;141873;-65
2022/05/19 16:44:03;;;;;;;5.50;1.90;;;;;;;24.69;23.32;100285.80;214629;1274;141831;-63
2022/05/19 16:49:08;;;;;;;5.60;1.80;;;;;;;24.58;23.48;100278.37;212749;1274;163028;-65
2022/05/19 16:59:34;;;;;;;4.60;1.50;;;;;;;24.35;24.59;100265.52;213935;1274;142860;-64
2022/05/19 17:04:39;;;;;;;2.70;1.90;;;;;;;24.27;25.15;100257.66;213252;1274;145788;-63
2022/05/19 17:10:06;;;;;;;2.00;1.70;;;;;;;24.16;25.75;100255.80;212990;1274;140729;-64
2022/05/19 17:15:10;;;;;;;1.90;1.80;;;;;;;24.01;26.67;100250.59;215751;1274;140684;-64
2022/05/19 17:20:15;;;;;;;9.00;1.90;;;;;;;23.86;27.55;100251.13;214954;1274;140382;-65
2022/05/19 17:25:20;;;;;;;2.50;1.80;;;;;;;23.68;28.64;100251.46;213748;1274;208694;-63
2022/05/19 17:30:26;;;;;;;6.90;2.20;;;;;;;23.52;29.09;100244.22;215573;1274;140743;-66
2022/05/19 17:35:37;;;;;;;2.50;1.90;;;;;;;23.35;29.59;100244.44;216019;1274;140560;-66
2022/05/19 17:40:41;;;;;;;4.00;2.30;;;;;;;23.10;30.46;100240.80;215636;1274;141387;-65
2022/05/19 17:45:49;;;;;;;3.70;1.90;;;;;;;22.94;31.07;100236.25;215087;1274;141767;-64
2022/05/19 17:50:53;;;;;;;3.30;2.00;;;;;;;22.74;31.46;100229.70;215018;1274;142029;-63
2022/05/19 17:55:58;;;;;;;4.60;2.40;;;;;;;22.47;31.69;100226.26;213826;1274;140905;-62
2022/05/19 18:01:03;;;;;;;3.20;2.30;;;;;;;22.20;32.18;100224.23;213399;1274;141012;-62
2022/05/19 18:06:06;;;;;;;6.10;2.80;;;;;;;21.94;32.90;100226.09;215238;1274;140912;-62
2022/05/19 18:11:12;;;;;;;3.50;2.60;;;;;;;21.67;33.69;100228.43;214699;1274;140962;-62
2022/05/19 18:21:44;;;;;;;8.30;2.40;;;;;;;21.09;34.70;100233.93;214388;1274;141983;-65
2022/05/19 18:26:57;;;;;;;4.00;2.10;;;;;;;20.82;35.07;100238.73;213183;1275;141128;-65
2022/05/19 18:32:03;;;;;;;3.40;2.70;;;;;;;20.60;35.97;100239.76;214742;1274;140164;-63
2022/05/19 18:37:06;;;;;;;3.50;2.50;;;;;;;20.38;36.82;100235.67;214516;1274;140716;-62
2022/05/19 18:47:34;;;;;;;11.90;2.80;;;;;;;19.84;38.16;100243.73;212945;1276;141813;-65
2022/05/19 18:52:36;;;;;;;3.20;2.50;;;;;;;19.52;39.01;100244.25;214459;1275;140441;-64
2022/05/19 18:57:39;;;;;;;7.80;3.00;;;;;;;19.18;39.97;100244.50;213067;1274;140295;-65
2022/05/19 19:02:42;;;;;;;14.20;3.50;;;;;;;18.84;40.75;100248.29;214059;1276;140561;-67
2022/05/19 19:07:45;;;;;;;19.00;3.90;;;;;;;18.46;41.20;100250.55;214561;1276;140075;-64
2022/05/19 19:12:48;;;;;;;10.70;4.30;;;;;;;18.13;41.77;100256.45;214029;1273;140473;-64
2022/05/19 19:17:52;;;;;;;8.50;3.80;;;;;;;17.96;42.49;100265.48;215864;1274;140945;-64
2022/05/19 19:22:56;;;;;;;6.80;3.70;;;;;;;17.74;42.82;100263.41;215603;1276;142119;-62
2022/05/19 19:28:00;;;;;;;17.70;4.50;;;;;;;17.57;42.88;100252.75;214788;1274;141101;-65
2022/05/19 19:33:04;;;;;;;6.60;3.80;;;;;;;17.42;43.03;100255.26;216102;1275;140731;-65
2022/05/19 19:38:07;;;;;;;11.70;3.20;;;;;;;17.29;43.20;100254.48;215139;1276;142533;-66
2022/05/19 19:43:11;;;;;;;9.30;4.50;;;;;;;17.08;43.57;100255.56;215906;1276;140289;-64
2022/05/19 19:48:14;;;;;;;6.80;4.60;;;;;;;16.82;44.28;100246.54;214338;1274;1098123;-63
2022/05/19 19:53:18;;;;;;;19.80;5.30;;;;;;;16.53;44.79;100248.46;214629;1276;140860;-64
2022/05/19 19:58:24;;;;;;;12.60;5.00;;;;;;;16.39;45.83;100244.68;214156;1276;141040;-64
2022/05/19 20:03:29;;;;;;;10.50;4.70;;;;;;;16.24;46.42;100247.87;214179;1274;140009;-63
2022/05/19 20:08:33;;;;;;;13.40;5.30;;;;;;;15.94;46.42;100237.05;214353;1274;141396;-63
2022/05/19 20:13:36;;;;;;;8.30;5.20;;;;;;;15.75;46.63;100235.41;214681;1274;141523;-63
2022/05/19 20:18:44;;;;;;;;;;;;;;;15.65;47.12;100228.02;213601;1274;140059;-64
2022/05/19 20:23:47;;;;;;;8.20;4.80;;;;;;;15.49;46.83;100217.27;214754;1274;127081;-63
2022/05/19 20:28:51;;;;;;;14.10;5.70;;;;;;;15.45;46.46;100213.95;214490;1274;141300;-64
2022/05/19 20:33:54;;;;;;;7.00;4.30;;;;;;;15.48;46.17;100211.67;214402;1274;139882;-64
2022/05/19 20:38:57;;;;;;;11.20;4.90;;;;;;;15.51;46.08;100203.37;213321;1274;141682;-63
2022/05/19 20:44:02;;;;;;;6.40;4.20;;;;;;;15.50;45.99;100197.23;213470;1274;143069;-63
2022/05/19 20:49:06;;;;;;;5.30;3.70;;;;;;;15.49;45.79;100193.51;213625;1274;141419;-64
2022/05/19 20:54:09;;;;;;;6.00;3.80;;;;;;;15.50;45.51;100182.67;213053;1276;141224;-65
2022/05/19 20:59:13;;;;;;;5.80;3.90;;;;;;;15.50;45.45;100183.52;213919;1274;141368;-65
2022/05/19 21:04:16;;;;;;;3.60;3.20;;;;;;;15.48;45.28;100178.61;214522;1273;140331;-66
2022/05/19 21:09:19;;;;;;;4.60;3.70;;;;;;;15.48;45.16;100178.63;214235;1274;140946;-65
2022/05/19 21:14:22;;;;;;;5.20;2.90;;;;;;;15.48;44.98;100173.67;212942;1274;141491;-65
2022/05/19 21:19:39;;;;;;;7.90;3.30;;;;;;;15.41;44.87;100162.05;215942;1274;140924;-66
2022/05/19 21:30:07;;;;;;;5.40;2.60;;;;;;;15.36;44.87;100154.17;214931;1274;141724;-65
2022/05/19 21:35:11;;;;;;;;;;;;;;;15.39;44.75;100150.48;214418;1274;141787;-66
2022/05/19 21:40:14;;;;;;;8.70;3.30;;;;;;;15.38;44.58;100149.61;216522;1274;128432;-65
2022/05/19 21:45:17;;;;;;;3.40;2.60;;;;;;;15.48;44.25;100149.02;213563;1274;141075;-64
2022/05/19 21:50:24;;;;;;;4.30;2.30;;;;;;;15.52;44.19;100151.73;214826;1274;141578;-64
2022/05/19 21:55:28;;;;;;;2.50;2.30;;;;;;;15.51;44.05;100151.40;215609;1274;140898;-65
2022/05/19 22:00:50;;;;;;;2.50;2.00;;;;;;;15.54;43.93;100147.51;213140;1274;140885;-66
2022/05/19 22:11:25;;;;;;;5.70;2.30;;;;;;;15.57;43.70;100134.98;213049;1277;141181;-63
2022/05/19 22:16:28;;;;;;;3.50;2.00;;;;;;;15.56;43.63;100137.91;214317;1277;141993;-65
2022/05/19 22:21:31;;;;;;;2.80;2.50;;;;;;;15.56;43.55;100136.90;213263;1274;143545;-63
2022/05/19 22:26:34;;;;;;;4.80;2.50;;;;;;;15.56;43.40;100134.90;215173;1274;141372;-63
2022/05/19 22:31:37;;;;;;;7.90;2.50;;;;;;;15.54;43.42;100127.78;214390;1274;206645;-64
2022/05/19 22:36:39;;;;;;;2.30;1.70;;;;;;;15.54;43.37;100127.67;214232;1274;140559;-65
2022/05/19 22:41:41;;;;;;;1.90;1.70;;;;;;;15.55;43.31;100123.08;214720;1274;142282;-64
2022/05/19 22:52:05;;;;;;;5.30;2.80;;;;;;;15.53;43.37;100130.05;214910;1274;140995;-65
2022/05/19 22:57:09;;;;;;;3.10;1.90;;;;;;;15.52;43.37;100116.70;214460;1274;140939;-64
2022/05/19 23:02:12;;;;;;;4.50;2.10;;;;;;;15.47;43.34;100112.79;214182;1274;140882;-65
2022/05/19 23:07:15;;;;;;;4.20;2.50;;;;;;;15.38;43.75;100113.36;215430;1274;140711;-66
2022/05/19 23:12:18;;;;;;;2.50;2.10;;;;;;;15.29;43.86;100115.38;216038;1274;141679;-65
2022/05/19 23:17:22;;;;;;;2.20;1.90;;;;;;;15.20;44.27;100104.19;212980;1274;141352;-64
2022/05/19 23:22:26;;;;;;;5.00;1.90;;;;;;;15.13;44.33;100102.46;216097;1274;140308;-65
2022/05/19 23:27:28;;;;;;;6.10;3.10;;;;;;;15.06;44.40;100092.52;216110;1274;140641;-67
2022/05/19 23:37:53;;;;;;;4.80;2.30;;;;;;;15.00;44.80;100079.48;214456;1274;151347;-63
2022/05/19 23:42:56;;;;;;;5.60;2.50;;;;;;;14.98;44.81;100079.99;214390;1274;141073;-62
2022/05/19 23:47:58;;;;;;;3.00;2.10;;;;;;;14.93;44.83;100079.31;215535;1274;141296;-64
2022/05/19 23:53:01;;;;;;;6.70;2.30;;;;;;;14.89;44.88;100083.56;214536;1274;139848;-65
2022/05/19 23:58:05;;;;;;;3.80;2.40;;;;;;;14.81;45.09;100081.23;214746;1274;140622;-64
